Terminal Aerodrome Forecast
Issued by NWS Wichita, KS

Home | Current Version | Previous Version | Text Only | Print | Product List | Glossary On
Versions: 1 2 3 4 5 6 7 8 9 10 11 12
415
FTUS43 KICT 081132
TAFICT
TAF
KICT 081132Z 0812/0912 34012KT P6SM SKC
     FM082300 34005KT P6SM FEW250
     FM090400 VRB03KT P6SM SCT250=

USA.gov is the U.S. government's official web portal to all federal, state and local government web resources and services.